createdAt,value
2022-08-20T00:01:20.906Z,91791.94
2022-08-20T00:03:53.592Z,91802.94
2022-08-20T00:06:25.989Z,91800.69
2022-08-20T00:08:58.409Z,91797.66
2022-08-20T00:11:33.203Z,91799.91
2022-08-20T00:14:06.930Z,91796.06
2022-08-20T00:16:39.458Z,91799.81
2022-08-20T00:19:11.895Z,91793.75
2022-08-20T00:21:44.315Z,91797.47
2022-08-20T00:24:19.379Z,91790.16
2022-08-20T00:26:52.992Z,91796.56
2022-08-20T00:29:25.786Z,91794.38
2022-08-20T00:31:58.807Z,91791.31
2022-08-20T00:34:31.218Z,91791.38
2022-08-20T00:37:03.731Z,91787.56
2022-08-20T00:39:36.291Z,91786.00
2022-08-20T00:42:09.499Z,91790.06
2022-08-20T00:44:45.632Z,91784.72
2022-08-20T00:47:18.044Z,91790.69
2022-08-20T00:49:50.587Z,91786.03
2022-08-20T00:52:23.085Z,91774.69
2022-08-20T00:55:00.183Z,91774.31
2022-08-20T00:57:43.896Z,91769.38
2022-08-20T01:00:32.870Z,91759.47
2022-08-20T01:03:09.053Z,91759.06
2022-08-20T01:05:44.059Z,91768.50
2022-08-20T01:08:19.215Z,91744.22
2022-08-20T01:11:02.934Z,91751.81
2022-08-20T01:13:37.414Z,91750.97
2022-08-20T01:16:17.773Z,91745.69
2022-08-20T01:18:51.273Z,91750.59
2022-08-20T01:21:25.339Z,91742.56
2022-08-20T01:24:06.247Z,91745.22
2022-08-20T01:26:44.629Z,91736.81
2022-08-20T01:29:19.998Z,91737.84
2022-08-20T01:31:52.571Z,91733.28
2022-08-20T01:34:24.987Z,91740.16
2022-08-20T01:36:58.208Z,91739.66
2022-08-20T01:39:33.081Z,91733.56
2022-08-20T01:42:12.577Z,91731.25
2022-08-20T01:44:46.365Z,91731.59
2022-08-20T01:47:21.622Z,91737.59
2022-08-20T01:49:59.094Z,91736.81
2022-08-20T01:52:37.503Z,91741.66
2022-08-20T01:55:10.550Z,91749.94
2022-08-20T01:57:44.223Z,91743.53
2022-08-20T02:00:19.733Z,91746.28
2022-08-20T02:02:53.947Z,91745.59
2022-08-20T02:05:30.518Z,91743.28
2022-08-20T02:08:04.145Z,91741.41
2022-08-20T02:10:36.567Z,91746.66
2022-08-20T02:13:09.695Z,91744.81
2022-08-20T02:15:43.162Z,91737.00
2022-08-20T02:18:16.193Z,91738.00
2022-08-20T02:20:51.305Z,91736.91
2022-08-20T02:23:23.779Z,91732.72
2022-08-20T02:25:56.490Z,91730.13
2022-08-20T02:28:29.594Z,91739.56
2022-08-20T02:31:03.278Z,91736.47
2022-08-20T02:33:35.993Z,91732.31
2022-08-20T02:36:12.542Z,91741.47
2022-08-20T02:38:46.436Z,91731.06
2022-08-20T02:41:21.295Z,91747.31
2022-08-20T02:43:54.359Z,91743.94
2022-08-20T02:46:27.592Z,91743.88
2022-08-20T02:49:00.087Z,91750.41
2022-08-20T02:51:32.748Z,91745.78
2022-08-20T02:54:05.311Z,91749.19
2022-08-20T02:56:38.235Z,91757.00
2022-08-20T02:59:12.534Z,91749.38
2022-08-20T03:02:00.191Z,91752.38
2022-08-20T03:04:33.339Z,91755.34
2022-08-20T03:07:06.399Z,91749.63
2022-08-20T03:09:39.213Z,91742.88
2022-08-20T03:12:11.614Z,91751.16
2022-08-20T03:14:44.667Z,91751.56
2022-08-20T03:17:17.055Z,91743.69
2022-08-20T03:19:49.506Z,91754.63
2022-08-20T03:22:21.922Z,91739.88
2022-08-20T03:24:54.886Z,91746.00
2022-08-20T03:27:27.726Z,91751.56
2022-08-20T03:30:13.736Z,91758.09
2022-08-20T03:32:46.603Z,91745.66
2022-08-20T03:35:21.466Z,91753.97
2022-08-20T03:37:54.720Z,91753.28
2022-08-20T03:40:30.048Z,91750.59
2022-08-20T03:43:03.166Z,91751.28
2022-08-20T03:45:38.712Z,91741.69
2022-08-20T03:48:14.135Z,91760.31
2022-08-20T03:50:48.536Z,91770.06
2022-08-20T03:53:22.159Z,91765.16
2022-08-20T03:55:56.451Z,91766.25
2022-08-20T03:58:35.019Z,91762.53
2022-08-20T04:01:44.178Z,91769.84
2022-08-20T04:04:02.279Z,91766.78
2022-08-20T04:06:35.184Z,91768.03
2022-08-20T04:09:07.664Z,91773.78
2022-08-20T04:11:42.429Z,91768.16
2022-08-20T04:14:18.701Z,91770.34
2022-08-20T04:16:52.690Z,91768.09
2022-08-20T04:19:25.175Z,91772.06
2022-08-20T04:21:57.689Z,91772.53
2022-08-20T04:24:31.876Z,91772.19
2022-08-20T04:27:05.095Z,91771.91
2022-08-20T04:29:42.367Z,91766.19
2022-08-20T04:32:15.451Z,91766.97
2022-08-20T04:34:51.515Z,91777.19
2022-08-20T04:37:24.496Z,91779.09
2022-08-20T04:40:15.346Z,91778.47
2022-08-20T04:42:47.859Z,91776.28
2022-08-20T04:45:26.021Z,91769.59
2022-08-20T04:48:05.045Z,91760.97
2022-08-20T04:50:39.926Z,91766.59
2022-08-20T04:53:16.139Z,91759.03
2022-08-20T04:55:49.382Z,91758.44
2022-08-20T04:58:26.672Z,91758.94
2022-08-20T05:01:01.701Z,91754.06
2022-08-20T05:03:34.941Z,91765.56
2022-08-20T05:06:09.810Z,91772.41
2022-08-20T05:08:42.409Z,91766.06
2022-08-20T05:11:33.886Z,91768.47
2022-08-20T05:14:08.957Z,91774.63
2022-08-20T05:16:41.709Z,91774.66
2022-08-20T05:19:14.858Z,91773.22
2022-08-20T05:21:47.254Z,91777.16
2022-08-20T05:24:20.787Z,91765.84
2022-08-20T05:26:55.144Z,91763.13
2022-08-20T05:29:28.077Z,91746.94
2022-08-20T05:32:01.179Z,91756.22
2022-08-20T05:34:34.277Z,91756.09
2022-08-20T05:37:07.739Z,91760.06
2022-08-20T05:39:40.268Z,91762.88
2022-08-20T05:42:12.704Z,91760.69
2022-08-20T05:44:45.942Z,91761.16
2022-08-20T05:47:18.383Z,91750.66
2022-08-20T05:49:51.935Z,91757.19
2022-08-20T05:52:24.384Z,91755.81
2022-08-20T05:54:56.990Z,91758.63
2022-08-20T05:57:29.601Z,91753.84
2022-08-20T06:00:05.607Z,91747.50
2022-08-20T06:03:02.203Z,91749.13
2022-08-20T06:05:35.339Z,91749.22
2022-08-20T06:08:09.646Z,91750.03
2022-08-20T06:10:43.399Z,91749.69
2022-08-20T06:13:15.828Z,91750.09
2022-08-20T06:15:48.700Z,91744.06
2022-08-20T06:18:27.746Z,91741.78
2022-08-20T06:21:01.854Z,91745.94
2022-08-20T06:23:56.896Z,91744.03
2022-08-20T06:26:29.644Z,91748.22
2022-08-20T06:29:04.952Z,91748.56
2022-08-20T06:31:39.247Z,91747.78
2022-08-20T06:34:11.662Z,91743.91
2022-08-20T06:36:46.062Z,91740.41
2022-08-20T06:39:18.456Z,91743.34
2022-08-20T06:41:51.315Z,91750.56
2022-08-20T06:44:27.602Z,91745.16
2022-08-20T06:47:00.787Z,91740.53
2022-08-20T06:49:35.403Z,91746.09
2022-08-20T06:52:08.747Z,91736.84
2022-08-20T06:54:44.075Z,91739.44
2022-08-20T06:57:16.875Z,91732.16
2022-08-20T06:59:54.157Z,91733.66
2022-08-20T07:02:30.068Z,91732.91
2022-08-20T07:05:04.575Z,91726.25
2022-08-20T07:07:38.151Z,91724.94
2022-08-20T07:10:12.587Z,91721.41
2022-08-20T07:12:46.138Z,91719.38
2022-08-20T07:15:20.492Z,91726.41
2022-08-20T07:18:00.876Z,91720.59
2022-08-20T07:20:37.598Z,91723.09
2022-08-20T07:23:11.323Z,91728.00
2022-08-20T07:25:44.417Z,91725.50
2022-08-20T07:28:20.218Z,91736.03
2022-08-20T07:31:13.291Z,91734.41
2022-08-20T07:33:46.778Z,91739.50
2022-08-20T07:36:22.833Z,91730.50
2022-08-20T07:38:56.890Z,91735.53
2022-08-20T07:41:29.567Z,91741.63
2022-08-20T07:44:02.314Z,91731.09
2022-08-20T07:46:35.055Z,91731.75
2022-08-20T07:49:08.902Z,91730.66
2022-08-20T07:51:41.283Z,91739.47
2022-08-20T07:54:14.351Z,91737.97
2022-08-20T07:56:47.136Z,91740.66
2022-08-20T07:59:24.199Z,91743.78
2022-08-20T08:01:57.030Z,91725.50
2022-08-20T08:04:29.518Z,91734.56
2022-08-20T08:07:01.954Z,91735.84
2022-08-20T08:09:35.543Z,91738.03
2022-08-20T08:12:08.233Z,91741.19
2022-08-20T08:14:42.842Z,91733.09
2022-08-20T08:17:17.219Z,91738.00
2022-08-20T08:19:50.699Z,91729.78
2022-08-20T08:22:23.309Z,91727.13
2022-08-20T08:25:01.426Z,91715.69
2022-08-20T08:27:33.982Z,91713.66
2022-08-20T08:30:08.197Z,91720.81
2022-08-20T08:33:01.463Z,91717.94
2022-08-20T08:35:34.046Z,91723.69
2022-08-20T08:38:06.476Z,91715.03
2022-08-20T08:40:40.480Z,91718.50
2022-08-20T08:43:14.484Z,91713.75
2022-08-20T08:46:00.790Z,91711.91
2022-08-20T08:48:36.931Z,91712.16
2022-08-20T08:51:12.123Z,91705.06
2022-08-20T08:53:50.394Z,91704.13
2022-08-20T08:56:28.364Z,91703.78
2022-08-20T08:59:03.935Z,91705.22
2022-08-20T09:01:54.615Z,91702.63
2022-08-20T09:04:34.454Z,91696.97
2022-08-20T09:07:13.772Z,91696.69
2022-08-20T09:09:46.747Z,91705.28
2022-08-20T09:12:22.215Z,91709.31
2022-08-20T09:14:54.937Z,91698.63
2022-08-20T09:17:27.484Z,91698.91
2022-08-20T09:19:59.946Z,91694.75
2022-08-20T09:22:33.187Z,91698.31
2022-08-20T09:25:06.875Z,91698.31
2022-08-20T09:27:41.564Z,91692.59
2022-08-20T09:30:16.858Z,91690.88
2022-08-20T09:32:50.978Z,91681.84
2022-08-20T09:35:23.611Z,91682.19
2022-08-20T09:37:56.049Z,91683.97
2022-08-20T09:40:28.438Z,91691.13
2022-08-20T09:43:02.783Z,91680.09
2022-08-20T09:45:35.359Z,91684.66
2022-08-20T09:48:10.189Z,91684.50
2022-08-20T09:50:47.311Z,91686.38
2022-08-20T09:53:21.588Z,91686.28
2022-08-20T09:55:55.538Z,91682.69
2022-08-20T09:58:34.583Z,91704.16
2022-08-20T10:01:13.662Z,91695.00
2022-08-20T10:03:48.323Z,91690.50
2022-08-20T10:06:20.926Z,91684.34
2022-08-20T10:08:53.354Z,91675.06
2022-08-20T10:11:25.880Z,91675.03
2022-08-20T10:14:02.916Z,91676.03
2022-08-20T10:16:35.499Z,91675.28
2022-08-20T10:19:07.966Z,91677.28
2022-08-20T10:21:40.385Z,91674.88
2022-08-20T10:24:12.863Z,91669.00
2022-08-20T10:26:45.418Z,91668.47
2022-08-20T10:29:18.515Z,91675.38
2022-08-20T10:31:51.246Z,91673.53
2022-08-20T10:34:25.048Z,91667.06
2022-08-20T10:36:58.315Z,91664.06
2022-08-20T10:39:31.564Z,91662.63
2022-08-20T10:42:04.174Z,91661.44
2022-08-20T10:44:37.331Z,91662.56
2022-08-20T10:47:21.431Z,91654.50
2022-08-20T10:49:56.146Z,91658.97
2022-08-20T10:52:28.969Z,91655.91
2022-08-20T10:55:03.562Z,91647.53
2022-08-20T10:57:39.275Z,91651.16
2022-08-20T11:00:15.049Z,91649.91
2022-08-20T11:02:47.485Z,91648.59
2022-08-20T11:05:20.006Z,91645.13
2022-08-20T11:07:55.978Z,91634.44
2022-08-20T11:10:32.619Z,91643.03
2022-08-20T11:13:06.927Z,91636.59
2022-08-20T11:15:42.483Z,91635.66
2022-08-20T11:18:15.111Z,91635.06
2022-08-20T11:20:47.615Z,91624.66
2022-08-20T11:23:20.039Z,91625.81
2022-08-20T11:25:52.633Z,91626.25
2022-08-20T11:28:31.259Z,91618.28
2022-08-20T11:31:05.303Z,91611.34
2022-08-20T11:33:37.718Z,91604.59
2022-08-20T11:36:10.151Z,91601.41
2022-08-20T11:38:42.556Z,91605.25
2022-08-20T11:41:14.945Z,91603.56
2022-08-20T11:44:04.766Z,91602.91
2022-08-20T11:46:40.342Z,91607.97
2022-08-20T11:49:12.749Z,91609.09
2022-08-20T11:51:49.117Z,91610.56
2022-08-20T11:54:22.673Z,91610.00
2022-08-20T11:56:55.667Z,91605.94
2022-08-20T11:59:28.198Z,91602.31
2022-08-20T12:02:03.194Z,91601.22
2022-08-20T12:04:36.054Z,91603.03
2022-08-20T12:07:10.560Z,91609.56
2022-08-20T12:09:51.225Z,91607.09
2022-08-20T12:12:24.217Z,91595.91
2022-08-20T12:14:56.631Z,91612.41
2022-08-20T12:17:32.030Z,91602.34
2022-08-20T12:20:08.313Z,91599.31
2022-08-20T12:22:41.232Z,91591.78
2022-08-20T12:25:13.709Z,91582.31
2022-08-20T12:27:46.739Z,91594.59
2022-08-20T12:30:21.926Z,91594.69
2022-08-20T12:32:55.229Z,91603.41
2022-08-20T12:35:27.639Z,91598.66
2022-08-20T12:38:04.635Z,91588.06
2022-08-20T12:40:37.354Z,91598.16
2022-08-20T12:43:19.656Z,91595.38
2022-08-20T12:45:54.070Z,91601.28
2022-08-20T12:48:27.275Z,91603.53
2022-08-20T12:50:59.636Z,91601.81
2022-08-20T12:53:32.097Z,91607.41
2022-08-20T12:56:05.466Z,91603.94
2022-08-20T12:58:38.019Z,91591.69
2022-08-20T13:01:10.526Z,91589.06
2022-08-20T13:03:45.248Z,91571.34
2022-08-20T13:06:17.750Z,91562.19
2022-08-20T13:08:50.224Z,91544.94
2022-08-20T13:11:22.813Z,91537.75
2022-08-20T13:13:55.305Z,91529.66
2022-08-20T13:16:27.883Z,91528.50
2022-08-20T13:19:01.045Z,91559.91
2022-08-20T13:21:33.477Z,91581.66
2022-08-20T13:24:06.023Z,91593.38
2022-08-20T13:26:38.416Z,91597.69
2022-08-20T13:29:11.271Z,91602.38
2022-08-20T13:31:43.858Z,91596.88
2022-08-20T13:34:17.004Z,91604.06
2022-08-20T13:36:49.695Z,91615.53
2022-08-20T13:39:23.302Z,91623.31
2022-08-20T13:41:56.064Z,91641.13
2022-08-20T13:44:33.260Z,91636.06
2022-08-20T13:47:17.074Z,91617.69
2022-08-20T13:49:55.533Z,91610.81
2022-08-20T13:52:28.521Z,91629.81
2022-08-20T13:55:01.016Z,91624.41
2022-08-20T13:57:35.759Z,91639.88
2022-08-20T14:00:14.010Z,91647.19
2022-08-20T14:02:46.505Z,91647.69
2022-08-20T14:05:20.351Z,91659.59
2022-08-20T14:07:52.923Z,91658.13
2022-08-20T14:10:30.585Z,91675.16
2022-08-20T14:13:13.322Z,91714.16
2022-08-20T14:15:47.821Z,91738.06
2022-08-20T14:18:20.326Z,91736.97
2022-08-20T14:20:53.482Z,91708.38
2022-08-20T14:23:25.877Z,91712.28
2022-08-20T14:26:00.298Z,91734.75
2022-08-20T14:28:32.689Z,91756.59
2022-08-20T14:31:05.299Z,91788.63
2022-08-20T14:33:41.268Z,91790.94
2022-08-20T14:36:17.143Z,91780.63
2022-08-20T14:38:49.567Z,91738.03
2022-08-20T14:41:22.022Z,91686.84
2022-08-20T14:43:54.378Z,91670.97
2022-08-20T14:46:26.835Z,91674.44
2022-08-20T14:49:01.052Z,91666.09
2022-08-20T14:51:34.164Z,91642.63
2022-08-20T14:54:06.554Z,91640.75
2022-08-20T14:56:38.982Z,91630.91
2022-08-20T14:59:11.383Z,91612.28
2022-08-20T15:01:44.052Z,91601.28
2022-08-20T15:04:18.525Z,91584.19
2022-08-20T15:06:51.747Z,91586.81
2022-08-20T15:09:29.755Z,91568.63
2022-08-20T15:12:02.324Z,91590.66
2022-08-20T15:14:34.823Z,91592.13
2022-08-20T15:17:17.251Z,91587.91
2022-08-20T15:19:49.688Z,91575.78
2022-08-20T15:22:23.815Z,91568.22
2022-08-20T15:24:57.742Z,91568.97
2022-08-20T15:27:30.411Z,91562.13
2022-08-20T15:30:04.739Z,91568.19
2022-08-20T15:32:37.381Z,91581.03
2022-08-20T15:35:12.435Z,91587.81
2022-08-20T15:37:50.647Z,91592.34
2022-08-20T15:40:28.406Z,91577.53
2022-08-20T15:43:02.878Z,91578.31
2022-08-20T15:45:35.895Z,91575.72
2022-08-20T15:48:12.036Z,91578.03
2022-08-20T15:50:57.132Z,91552.28
2022-08-20T15:53:39.228Z,91537.50
2022-08-20T15:56:24.992Z,91528.75
2022-08-20T15:59:13.659Z,91516.63
2022-08-20T16:01:53.474Z,91518.91
2022-08-20T16:04:59.334Z,91508.31
2022-08-20T16:07:39.589Z,91504.13
2022-08-20T16:10:17.801Z,91508.69
2022-08-20T16:12:54.123Z,91507.56
2022-08-20T16:15:31.707Z,91499.97
2022-08-20T16:18:08.699Z,91506.00
2022-08-20T16:20:44.042Z,91505.25
2022-08-20T16:23:26.695Z,91493.16
2022-08-20T16:26:13.210Z,91503.75
2022-08-20T16:29:06.283Z,91504.16
2022-08-20T16:31:49.416Z,91495.06
2022-08-20T16:34:33.929Z,91508.69
2022-08-20T16:37:20.960Z,91513.25
2022-08-20T16:40:02.334Z,91503.41
2022-08-20T16:42:38.660Z,91519.34
2022-08-20T16:45:16.741Z,91531.84
2022-08-20T16:47:50.537Z,91563.31
2022-08-20T16:50:25.863Z,91579.22
2022-08-20T16:52:58.645Z,91586.78
2022-08-20T16:55:31.607Z,91602.72
2022-08-20T16:58:04.730Z,91605.78
2022-08-20T17:00:45.389Z,91614.13
2022-08-20T17:03:31.553Z,91622.84
2022-08-20T17:06:20.627Z,91602.00
2022-08-20T17:08:53.778Z,91601.25
2022-08-20T17:11:32.262Z,91594.78
2022-08-20T17:14:09.563Z,91604.28
2022-08-20T17:16:46.620Z,91635.34
2022-08-20T17:19:27.196Z,91670.50
2022-08-20T17:22:09.695Z,91695.22
2022-08-20T17:24:42.187Z,91721.28
2022-08-20T17:27:25.292Z,91731.59
2022-08-20T17:30:11.679Z,91748.34
2022-08-20T17:32:58.446Z,91761.09
2022-08-20T17:35:35.600Z,91769.91
2022-08-20T17:38:20.202Z,91770.91
2022-08-20T17:40:59.396Z,91786.94
2022-08-20T17:43:33.090Z,91811.13
2022-08-20T17:46:11.222Z,91826.47
2022-08-20T17:48:46.162Z,91842.97
2022-08-20T17:51:21.384Z,91850.53
2022-08-20T17:53:59.335Z,91868.09
2022-08-20T17:56:36.605Z,91866.16
2022-08-20T17:59:17.861Z,91890.00
2022-08-20T18:02:05.967Z,91904.00
2022-08-20T18:04:38.642Z,91922.00
2022-08-20T18:07:18.884Z,91922.03
2022-08-20T18:10:01.396Z,91951.06
2022-08-20T18:12:38.858Z,91962.09
2022-08-20T18:15:19.224Z,91953.91
2022-08-20T18:18:15.400Z,91965.94
2022-08-20T18:21:05.474Z,91968.19
2022-08-20T18:23:43.072Z,91983.78
2022-08-20T18:26:27.344Z,91978.59
2022-08-20T18:29:07.844Z,91969.66
2022-08-20T18:31:45.850Z,91973.06
2022-08-20T18:34:21.374Z,91961.00
2022-08-20T18:36:58.130Z,91965.69
2022-08-20T18:39:34.727Z,91951.94
2022-08-20T18:42:10.151Z,91956.25
2022-08-20T18:44:45.479Z,91955.09
2022-08-20T18:47:24.480Z,91951.13
2022-08-20T18:50:16.359Z,91946.88
2022-08-20T18:52:51.360Z,91938.88
2022-08-20T18:55:31.956Z,91941.00
2022-08-20T18:58:06.215Z,91921.19
2022-08-20T19:00:42.044Z,91913.66
2022-08-20T19:03:19.311Z,91899.63
2022-08-20T19:06:05.158Z,91900.34
2022-08-20T19:08:48.827Z,91900.00
2022-08-20T19:11:55.796Z,91893.84
2022-08-20T19:14:53.958Z,91882.75
2022-08-20T19:17:48.373Z,91871.28
2022-08-20T19:20:22.704Z,91867.63
2022-08-20T19:23:01.237Z,91853.72
2022-08-20T19:25:38.358Z,91836.75
2022-08-20T19:28:19.908Z,91827.38
2022-08-20T19:30:52.671Z,91820.69
2022-08-20T19:33:27.086Z,91820.34
2022-08-20T19:36:11.902Z,91810.84
2022-08-20T19:38:47.332Z,91799.13
2022-08-20T19:41:30.372Z,91801.88
2022-08-20T19:44:04.213Z,91795.41
2022-08-20T19:46:39.040Z,91797.53
2022-08-20T19:49:19.981Z,91799.53
2022-08-20T19:52:04.498Z,91798.84
2022-08-20T19:54:47.022Z,91804.03
2022-08-20T19:57:20.903Z,91801.97
2022-08-20T19:59:58.012Z,91799.69
2022-08-20T20:02:32.274Z,91786.81
2022-08-20T20:05:05.683Z,91783.50
2022-08-20T20:07:41.306Z,91773.34
2022-08-20T20:10:29.446Z,91764.00
2022-08-20T20:13:09.816Z,91769.47
2022-08-20T20:15:43.447Z,91771.34
2022-08-20T20:18:15.872Z,91766.97
2022-08-20T20:20:57.743Z,91773.28
2022-08-20T20:23:45.611Z,91775.66
2022-08-20T20:26:20.352Z,91805.44
2022-08-20T20:29:00.314Z,91812.72
2022-08-20T20:31:47.404Z,91812.81
2022-08-20T20:34:26.912Z,91814.16
2022-08-20T20:37:03.897Z,91796.97
2022-08-20T20:39:41.517Z,91786.13
2022-08-20T20:42:26.779Z,91772.59
2022-08-20T20:44:59.605Z,91760.38
2022-08-20T20:47:33.713Z,91749.03
2022-08-20T20:50:11.968Z,91735.97
2022-08-20T20:52:49.488Z,91729.72
2022-08-20T20:55:24.583Z,91725.00
2022-08-20T20:57:59.069Z,91712.66
2022-08-20T21:00:35.152Z,91678.56
2022-08-20T21:03:07.660Z,91683.56
2022-08-20T21:05:40.839Z,91681.84
2022-08-20T21:08:14.180Z,91693.69
2022-08-20T21:10:48.251Z,91692.66
2022-08-20T21:13:21.372Z,91674.03
2022-08-20T21:15:53.771Z,91677.13
2022-08-20T21:18:26.569Z,91675.88
2022-08-20T21:21:00.030Z,91667.25
2022-08-20T21:23:40.013Z,91656.41
2022-08-20T21:26:14.315Z,91645.22
2022-08-20T21:28:47.493Z,91637.00
2022-08-20T21:31:19.905Z,91622.25
2022-08-20T21:33:52.344Z,91616.28
2022-08-20T21:36:24.823Z,91613.19
2022-08-20T21:38:57.867Z,91611.81
2022-08-20T21:41:31.130Z,91606.16
2022-08-20T21:44:11.210Z,91608.84
2022-08-20T21:46:43.612Z,91598.22
2022-08-20T21:49:16.122Z,91597.03
2022-08-20T21:51:49.254Z,91602.03
2022-08-20T21:54:22.604Z,91608.09
2022-08-20T21:56:58.372Z,91609.22
2022-08-20T21:59:32.093Z,91610.47
2022-08-20T22:02:05.651Z,91620.38
2022-08-20T22:04:38.142Z,91624.16
2022-08-20T22:07:11.001Z,91626.38
2022-08-20T22:09:43.544Z,91629.56
2022-08-20T22:12:18.967Z,91628.09
2022-08-20T22:14:52.232Z,91628.03
2022-08-20T22:17:24.635Z,91632.25
2022-08-20T22:19:57.083Z,91636.13
2022-08-20T22:22:29.662Z,91633.53
2022-08-20T22:25:02.336Z,91639.97
2022-08-20T22:27:34.734Z,91639.56
2022-08-20T22:30:11.132Z,91637.03
2022-08-20T22:32:51.311Z,91640.09
2022-08-20T22:35:25.158Z,91626.09
2022-08-20T22:37:58.029Z,91630.97
2022-08-20T22:40:30.499Z,91631.81
2022-08-20T22:43:02.918Z,91628.38
2022-08-20T22:45:36.918Z,91630.53
2022-08-20T22:48:10.847Z,91632.19
2022-08-20T22:50:44.303Z,91631.84
2022-08-20T22:53:18.859Z,91628.13
2022-08-20T22:55:51.586Z,91634.97
2022-08-20T22:58:30.930Z,91631.47
2022-08-20T23:01:04.993Z,91624.19
2022-08-20T23:03:39.428Z,91615.81
2022-08-20T23:06:13.614Z,91615.13
2022-08-20T23:08:46.222Z,91621.53
2022-08-20T23:11:18.651Z,91614.75
2022-08-20T23:13:51.055Z,91623.44
2022-08-20T23:16:25.007Z,91619.69
2022-08-20T23:18:57.413Z,91617.81
2022-08-20T23:21:29.826Z,91614.41
2022-08-20T23:24:03.799Z,91605.69
2022-08-20T23:26:39.596Z,91603.13
2022-08-20T23:29:25.791Z,91600.06
2022-08-20T23:31:59.959Z,91590.28
2022-08-20T23:34:32.668Z,91600.50
2022-08-20T23:37:06.500Z,91605.00
2022-08-20T23:39:39.613Z,91597.44
2022-08-20T23:42:12.262Z,91592.50
2022-08-20T23:44:45.062Z,91590.28
2022-08-20T23:47:20.825Z,91590.38
2022-08-20T23:49:53.312Z,91585.44
2022-08-20T23:52:25.856Z,91586.16
2022-08-20T23:54:58.214Z,91587.69
2022-08-20T23:57:30.739Z,91585.59
